Bohicon, Benin

11:51 PM WAT on September 18, 2014 (GMT +0100)
Cadjehoun | Change Station
CLOSE
Current Station
Airport
Location: Cotonou,
Elevation: 16 ft
Nearby Weather Stations

Elev 16 ft 6.36 °N, 2.38 °E | Updated 1 hour ago

Scattered Clouds
Scattered Clouds
77 °F
Feels Like 77 °F
N
13
Wind Variable Wind from SW

Today
High -- | Low -- °F
--% Chance of Precip.
Yesterday
High -- | Low -- °F
Precip. -- in
6:41 AM 6:50 PM
Waning Crescent, 24% visible
Pressure 29.92 in
Visibility 6.2 miles
Clouds Scattered Clouds 1200 ft
Dew Point 77 °F
Humidity 100%
Rainfall 0.00 in
Snow Depth Not available.
UV 0 out of 12
Pollen Not available.
Air Quality Not available.
Flu Activity Not available.
METAR DBBB 182100Z 22011KT 9999 SCT012 25/25 Q1013 NOSIG

More Conditions Fewer Conditions

Pressure 29.92 in
Visibility 6.2 miles
Clouds Scattered Clouds 1200 ft
Dew Point 77 °F
Humidity 100%
Rainfall 0.00 in
Snow Depth Not available.
UV 0 out of 12
Pollen Not available.
Air Quality Not available.
Flu Activity Not available.
METAR DBBB 182100Z 22011KT 9999 SCT012 25/25 Q1013 NOSIG

More Conditions Fewer Conditions

10-Day Weather Forecast

Almanac

Astronomy

Sep. 18, 2014 Rise Set
Actual Time 6:41 AM WAT 6:50 PM WAT
Civil Twilight 6:20 AM WAT 7:10 PM WAT
Nautical Twilight 5:56 AM WAT 7:35 PM WAT
Astronomical Twilight 5:32 AM WAT 7:59 PM WAT
Moon 2:06 AM WAT 2:47 PM WAT
Length of Visible Light 12h 50m
Length of Day
12h 08m
Tomorrow will be 0m 23s shorter.
Waning Crescent, 24% of the Moon is Illuminated
Today
Waning Crescent
Sep 24
New
Oct 1
First Quarter
Oct 8
Full
Oct 15
Last Quarter

Today's Extremes

Country Highs Country Lows

Community

WunderPhotos

Upload Photos

1,754,471 photos uploaded!

WunderBlogs® & News

Nearby

Snow Depth

Not available.

Earthquake Activity

City Distance Mag. Time & Date
No recent earthquake activity has been reported nearby.
Minimum magnitude displayed is 2.5.

Coastal Water Temperatures

Place Temperature
No Stations Reporting

Nearby Weather Stations